sensor_id;sensor_type;location;lat;lon;timestamp;P1;durP1;ratioP1;P2;durP2;ratioP2
7817;SDS011;3954;52.624;9.212;2022-08-03T00:01:18;4.83;;;4.40;;
7817;SDS011;3954;52.624;9.212;2022-08-03T00:03:44;7.20;;;4.40;;
7817;SDS011;3954;52.624;9.212;2022-08-03T00:06:10;6.03;;;4.50;;
7817;SDS011;3954;52.624;9.212;2022-08-03T00:08:36;5.13;;;4.63;;
7817;SDS011;3954;52.624;9.212;2022-08-03T00:11:03;6.13;;;4.60;;
7817;SDS011;3954;52.624;9.212;2022-08-03T00:13:31;7.77;;;4.57;;
7817;SDS011;3954;52.624;9.212;2022-08-03T00:15:57;6.33;;;4.60;;
7817;SDS011;3954;52.624;9.212;2022-08-03T00:18:23;5.13;;;4.73;;
7817;SDS011;3954;52.624;9.212;2022-08-03T00:20:49;4.93;;;4.53;;
7817;SDS011;3954;52.624;9.212;2022-08-03T00:23:15;5.00;;;4.50;;
7817;SDS011;3954;52.624;9.212;2022-08-03T00:25:41;4.87;;;4.40;;
7817;SDS011;3954;52.624;9.212;2022-08-03T00:28:09;4.40;;;4.10;;
7817;SDS011;3954;52.624;9.212;2022-08-03T00:30:35;5.33;;;4.83;;
7817;SDS011;3954;52.624;9.212;2022-08-03T00:33:01;4.13;;;3.83;;
7817;SDS011;3954;52.624;9.212;2022-08-03T00:35:27;5.93;;;4.40;;
7817;SDS011;3954;52.624;9.212;2022-08-03T00:37:53;4.83;;;4.43;;
7817;SDS011;3954;52.624;9.212;2022-08-03T00:40:19;5.53;;;4.27;;
7817;SDS011;3954;52.624;9.212;2022-08-03T00:42:46;5.37;;;4.57;;
7817;SDS011;3954;52.624;9.212;2022-08-03T00:45:13;4.53;;;4.10;;
7817;SDS011;3954;52.624;9.212;2022-08-03T00:47:39;5.67;;;4.67;;
7817;SDS011;3954;52.624;9.212;2022-08-03T00:50:05;4.47;;;4.10;;
7817;SDS011;3954;52.624;9.212;2022-08-03T00:52:32;5.13;;;4.63;;
7817;SDS011;3954;52.624;9.212;2022-08-03T00:54:59;5.40;;;4.90;;
7817;SDS011;3954;52.624;9.212;2022-08-03T00:57:25;5.50;;;5.00;;
7817;SDS011;3954;52.624;9.212;2022-08-03T00:59:51;5.07;;;4.57;;
7817;SDS011;3954;52.624;9.212;2022-08-03T01:02:19;5.23;;;4.60;;
7817;SDS011;3954;52.624;9.212;2022-08-03T01:04:45;5.20;;;4.77;;
7817;SDS011;3954;52.624;9.212;2022-08-03T01:07:12;5.35;;;4.80;;
7817;SDS011;3954;52.624;9.212;2022-08-03T01:09:43;5.17;;;4.77;;
7817;SDS011;3954;52.624;9.212;2022-08-03T01:12:12;5.40;;;4.90;;
7817;SDS011;3954;52.624;9.212;2022-08-03T01:14:40;5.43;;;4.67;;
7817;SDS011;3954;52.624;9.212;2022-08-03T01:17:09;6.47;;;4.30;;
7817;SDS011;3954;52.624;9.212;2022-08-03T01:19:49;5.43;;;4.90;;
7817;SDS011;3954;52.624;9.212;2022-08-03T01:25:22;5.30;;;4.90;;
7817;SDS011;3954;52.624;9.212;2022-08-03T01:27:50;5.10;;;4.53;;
7817;SDS011;3954;52.624;9.212;2022-08-03T01:30:20;4.87;;;4.47;;
7817;SDS011;3954;52.624;9.212;2022-08-03T01:32:50;5.30;;;4.80;;
7817;SDS011;3954;52.624;9.212;2022-08-03T01:35:19;5.03;;;4.53;;
7817;SDS011;3954;52.624;9.212;2022-08-03T01:37:48;5.57;;;5.07;;
7817;SDS011;3954;52.624;9.212;2022-08-03T01:40:15;6.07;;;5.00;;
7817;SDS011;3954;52.624;9.212;2022-08-03T01:42:42;5.80;;;5.23;;
7817;SDS011;3954;52.624;9.212;2022-08-03T01:45:09;5.83;;;4.90;;
7817;SDS011;3954;52.624;9.212;2022-08-03T01:47:37;5.03;;;4.63;;
7817;SDS011;3954;52.624;9.212;2022-08-03T01:50:04;5.20;;;4.80;;
7817;SDS011;3954;52.624;9.212;2022-08-03T01:52:31;5.50;;;5.10;;
7817;SDS011;3954;52.624;9.212;2022-08-03T01:54:58;4.80;;;4.47;;
7817;SDS011;3954;52.624;9.212;2022-08-03T01:57:25;9.00;;;4.73;;
7817;SDS011;3954;52.624;9.212;2022-08-03T01:59:52;5.13;;;4.73;;
7817;SDS011;3954;52.624;9.212;2022-08-03T02:02:18;5.30;;;4.80;;
7817;SDS011;3954;52.624;9.212;2022-08-03T02:04:47;5.27;;;4.87;;
7817;SDS011;3954;52.624;9.212;2022-08-03T02:07:13;5.00;;;4.60;;
7817;SDS011;3954;52.624;9.212;2022-08-03T02:09:40;5.20;;;4.40;;
7817;SDS011;3954;52.624;9.212;2022-08-03T02:12:09;5.13;;;4.73;;
7817;SDS011;3954;52.624;9.212;2022-08-03T02:14:36;4.77;;;4.37;;
7817;SDS011;3954;52.624;9.212;2022-08-03T02:17:02;5.20;;;4.77;;
7817;SDS011;3954;52.624;9.212;2022-08-03T02:19:29;5.27;;;4.70;;
7817;SDS011;3954;52.624;9.212;2022-08-03T02:21:57;5.10;;;4.60;;
7817;SDS011;3954;52.624;9.212;2022-08-03T02:24:23;5.20;;;4.73;;
7817;SDS011;3954;52.624;9.212;2022-08-03T02:26:50;4.93;;;4.53;;
7817;SDS011;3954;52.624;9.212;2022-08-03T02:29:17;4.90;;;4.50;;
7817;SDS011;3954;52.624;9.212;2022-08-03T02:31:44;5.27;;;4.77;;
7817;SDS011;3954;52.624;9.212;2022-08-03T02:34:12;4.80;;;4.50;;
7817;SDS011;3954;52.624;9.212;2022-08-03T02:36:38;5.07;;;4.60;;
7817;SDS011;3954;52.624;9.212;2022-08-03T02:39:08;6.17;;;4.73;;
7817;SDS011;3954;52.624;9.212;2022-08-03T02:41:36;5.00;;;4.60;;
7817;SDS011;3954;52.624;9.212;2022-08-03T02:44:06;5.00;;;4.60;;
7817;SDS011;3954;52.624;9.212;2022-08-03T02:46:33;4.87;;;4.47;;
7817;SDS011;3954;52.624;9.212;2022-08-03T02:49:01;5.40;;;4.87;;
7817;SDS011;3954;52.624;9.212;2022-08-03T02:51:29;5.20;;;4.70;;
7817;SDS011;3954;52.624;9.212;2022-08-03T02:53:55;5.83;;;5.10;;
7817;SDS011;3954;52.624;9.212;2022-08-03T02:56:24;5.20;;;4.70;;
7817;SDS011;3954;52.624;9.212;2022-08-03T02:58:50;5.20;;;4.50;;
7817;SDS011;3954;52.624;9.212;2022-08-03T03:01:18;5.00;;;4.60;;
7817;SDS011;3954;52.624;9.212;2022-08-03T03:03:44;5.67;;;4.97;;
7817;SDS011;3954;52.624;9.212;2022-08-03T03:06:10;5.70;;;4.70;;
7817;SDS011;3954;52.624;9.212;2022-08-03T03:08:37;6.13;;;5.27;;
7817;SDS011;3954;52.624;9.212;2022-08-03T03:11:03;5.67;;;5.17;;
7817;SDS011;3954;52.624;9.212;2022-08-03T03:13:31;5.53;;;5.13;;
7817;SDS011;3954;52.624;9.212;2022-08-03T03:15:59;5.73;;;5.33;;
7817;SDS011;3954;52.624;9.212;2022-08-03T03:18:26;5.43;;;5.03;;
7817;SDS011;3954;52.624;9.212;2022-08-03T03:20:52;5.73;;;5.17;;
7817;SDS011;3954;52.624;9.212;2022-08-03T03:23:19;5.83;;;5.33;;
7817;SDS011;3954;52.624;9.212;2022-08-03T03:25:46;5.27;;;4.87;;
7817;SDS011;3954;52.624;9.212;2022-08-03T03:28:12;5.27;;;4.83;;
7817;SDS011;3954;52.624;9.212;2022-08-03T03:30:39;5.33;;;4.93;;
7817;SDS011;3954;52.624;9.212;2022-08-03T03:33:05;5.63;;;5.10;;
7817;SDS011;3954;52.624;9.212;2022-08-03T03:35:32;5.93;;;5.03;;
7817;SDS011;3954;52.624;9.212;2022-08-03T03:37:58;5.63;;;5.03;;
7817;SDS011;3954;52.624;9.212;2022-08-03T03:40:24;6.13;;;5.23;;
7817;SDS011;3954;52.624;9.212;2022-08-03T03:42:51;5.47;;;4.97;;
7817;SDS011;3954;52.624;9.212;2022-08-03T03:45:17;5.50;;;5.10;;
7817;SDS011;3954;52.624;9.212;2022-08-03T03:47:44;6.53;;;5.43;;
7817;SDS011;3954;52.624;9.212;2022-08-03T03:50:10;5.63;;;5.13;;
7817;SDS011;3954;52.624;9.212;2022-08-03T03:52:36;5.20;;;4.70;;
7817;SDS011;3954;52.624;9.212;2022-08-03T03:55:03;6.00;;;5.20;;
7817;SDS011;3954;52.624;9.212;2022-08-03T03:57:29;6.07;;;5.50;;
7817;SDS011;3954;52.624;9.212;2022-08-03T03:59:55;6.00;;;5.27;;
7817;SDS011;3954;52.624;9.212;2022-08-03T04:02:21;5.67;;;5.23;;
7817;SDS011;3954;52.624;9.212;2022-08-03T04:04:48;4.77;;;4.37;;
7817;SDS011;3954;52.624;9.212;2022-08-03T04:07:35;6.10;;;5.43;;
7817;SDS011;3954;52.624;9.212;2022-08-03T04:10:22;5.80;;;5.27;;
7817;SDS011;3954;52.624;9.212;2022-08-03T04:13:09;5.50;;;5.10;;
7817;SDS011;3954;52.624;9.212;2022-08-03T04:15:35;6.07;;;5.47;;
7817;SDS011;3954;52.624;9.212;2022-08-03T04:18:02;5.80;;;5.30;;
7817;SDS011;3954;52.624;9.212;2022-08-03T04:20:31;5.77;;;5.23;;
7817;SDS011;3954;52.624;9.212;2022-08-03T04:22:59;5.13;;;4.63;;
7817;SDS011;3954;52.624;9.212;2022-08-03T04:25:26;7.90;;;5.30;;
7817;SDS011;3954;52.624;9.212;2022-08-03T04:27:53;6.37;;;5.10;;
7817;SDS011;3954;52.624;9.212;2022-08-03T04:30:23;5.20;;;4.80;;
7817;SDS011;3954;52.624;9.212;2022-08-03T04:32:51;5.77;;;5.27;;
7817;SDS011;3954;52.624;9.212;2022-08-03T04:35:17;5.30;;;4.80;;
7817;SDS011;3954;52.624;9.212;2022-08-03T04:37:45;4.80;;;4.47;;
7817;SDS011;3954;52.624;9.212;2022-08-03T04:40:13;4.90;;;4.43;;
7817;SDS011;3954;52.624;9.212;2022-08-03T04:42:39;4.90;;;4.50;;
7817;SDS011;3954;52.624;9.212;2022-08-03T04:45:06;4.43;;;4.10;;
7817;SDS011;3954;52.624;9.212;2022-08-03T04:47:34;5.03;;;4.07;;
7817;SDS011;3954;52.624;9.212;2022-08-03T04:50:01;4.83;;;4.17;;
7817;SDS011;3954;52.624;9.212;2022-08-03T04:52:27;4.50;;;4.10;;
7817;SDS011;3954;52.624;9.212;2022-08-03T04:54:54;4.63;;;4.23;;
7817;SDS011;3954;52.624;9.212;2022-08-03T04:57:21;5.10;;;4.40;;
7817;SDS011;3954;52.624;9.212;2022-08-03T04:59:47;4.30;;;3.90;;
7817;SDS011;3954;52.624;9.212;2022-08-03T05:02:16;4.43;;;4.00;;
7817;SDS011;3954;52.624;9.212;2022-08-03T05:04:42;4.40;;;4.00;;
7817;SDS011;3954;52.624;9.212;2022-08-03T05:07:10;5.37;;;4.03;;
7817;SDS011;3954;52.624;9.212;2022-08-03T05:09:36;4.10;;;3.80;;
7817;SDS011;3954;52.624;9.212;2022-08-03T05:12:04;4.33;;;3.93;;
7817;SDS011;3954;52.624;9.212;2022-08-03T05:14:30;4.00;;;3.67;;
7817;SDS011;3954;52.624;9.212;2022-08-03T05:16:56;5.13;;;3.90;;
7817;SDS011;3954;52.624;9.212;2022-08-03T05:19:22;3.80;;;3.50;;
7817;SDS011;3954;52.624;9.212;2022-08-03T05:21:48;4.33;;;3.93;;
7817;SDS011;3954;52.624;9.212;2022-08-03T05:24:14;3.70;;;3.33;;
7817;SDS011;3954;52.624;9.212;2022-08-03T05:26:40;4.30;;;3.80;;
7817;SDS011;3954;52.624;9.212;2022-08-03T05:29:08;6.37;;;4.10;;
7817;SDS011;3954;52.624;9.212;2022-08-03T05:31:34;4.10;;;3.33;;
7817;SDS011;3954;52.624;9.212;2022-08-03T05:34:00;3.77;;;3.40;;
7817;SDS011;3954;52.624;9.212;2022-08-03T05:36:26;4.77;;;3.77;;
7817;SDS011;3954;52.624;9.212;2022-08-03T05:38:52;3.60;;;3.30;;
7817;SDS011;3954;52.624;9.212;2022-08-03T05:41:18;3.60;;;3.30;;
7817;SDS011;3954;52.624;9.212;2022-08-03T05:43:44;3.47;;;3.23;;
7817;SDS011;3954;52.624;9.212;2022-08-03T05:46:11;5.60;;;3.47;;
7817;SDS011;3954;52.624;9.212;2022-08-03T05:48:37;3.40;;;3.10;;
7817;SDS011;3954;52.624;9.212;2022-08-03T05:51:03;3.90;;;3.20;;
7817;SDS011;3954;52.624;9.212;2022-08-03T05:53:31;4.40;;;3.10;;
7817;SDS011;3954;52.624;9.212;2022-08-03T05:55:58;3.93;;;3.07;;
7817;SDS011;3954;52.624;9.212;2022-08-03T05:58:24;5.17;;;3.27;;
7817;SDS011;3954;52.624;9.212;2022-08-03T06:00:50;3.67;;;3.10;;
7817;SDS011;3954;52.624;9.212;2022-08-03T06:03:17;4.70;;;3.13;;
7817;SDS011;3954;52.624;9.212;2022-08-03T06:05:44;3.50;;;3.17;;
7817;SDS011;3954;52.624;9.212;2022-08-03T06:08:10;3.30;;;2.93;;
7817;SDS011;3954;52.624;9.212;2022-08-03T06:10:36;3.27;;;2.97;;
7817;SDS011;3954;52.624;9.212;2022-08-03T06:13:02;3.07;;;2.77;;
7817;SDS011;3954;52.624;9.212;2022-08-03T06:15:28;6.17;;;2.87;;
7817;SDS011;3954;52.624;9.212;2022-08-03T06:17:57;3.50;;;2.70;;
7817;SDS011;3954;52.624;9.212;2022-08-03T06:20:24;3.07;;;2.77;;
7817;SDS011;3954;52.624;9.212;2022-08-03T06:22:50;4.20;;;2.90;;
7817;SDS011;3954;52.624;9.212;2022-08-03T06:25:17;3.80;;;2.60;;
7817;SDS011;3954;52.624;9.212;2022-08-03T06:27:43;2.80;;;2.60;;
7817;SDS011;3954;52.624;9.212;2022-08-03T06:30:09;2.77;;;2.43;;
7817;SDS011;3954;52.624;9.212;2022-08-03T06:32:36;3.50;;;2.77;;
7817;SDS011;3954;52.624;9.212;2022-08-03T06:35:02;3.27;;;2.77;;
7817;SDS011;3954;52.624;9.212;2022-08-03T06:37:29;3.17;;;2.53;;
7817;SDS011;3954;52.624;9.212;2022-08-03T06:39:55;5.70;;;2.57;;
7817;SDS011;3954;52.624;9.212;2022-08-03T06:42:21;4.87;;;2.57;;
7817;SDS011;3954;52.624;9.212;2022-08-03T06:44:48;2.80;;;2.60;;
7817;SDS011;3954;52.624;9.212;2022-08-03T06:47:14;3.63;;;2.70;;
7817;SDS011;3954;52.624;9.212;2022-08-03T06:49:40;5.67;;;2.53;;
7817;SDS011;3954;52.624;9.212;2022-08-03T06:52:06;4.27;;;2.60;;
7817;SDS011;3954;52.624;9.212;2022-08-03T06:54:36;2.57;;;2.27;;
7817;SDS011;3954;52.624;9.212;2022-08-03T06:57:02;3.70;;;2.50;;
7817;SDS011;3954;52.624;9.212;2022-08-03T06:59:28;3.73;;;2.57;;
7817;SDS011;3954;52.624;9.212;2022-08-03T07:01:54;4.33;;;2.70;;
7817;SDS011;3954;52.624;9.212;2022-08-03T07:04:20;2.70;;;2.30;;
7817;SDS011;3954;52.624;9.212;2022-08-03T07:06:46;2.97;;;2.30;;
7817;SDS011;3954;52.624;9.212;2022-08-03T07:09:12;3.03;;;2.57;;
7817;SDS011;3954;52.624;9.212;2022-08-03T07:11:39;2.93;;;2.10;;
7817;SDS011;3954;52.624;9.212;2022-08-03T07:14:05;6.60;;;2.40;;
7817;SDS011;3954;52.624;9.212;2022-08-03T07:16:31;2.67;;;2.03;;
7817;SDS011;3954;52.624;9.212;2022-08-03T07:18:57;2.87;;;2.20;;
7817;SDS011;3954;52.624;9.212;2022-08-03T07:21:23;3.40;;;2.20;;
7817;SDS011;3954;52.624;9.212;2022-08-03T07:23:49;5.23;;;2.13;;
7817;SDS011;3954;52.624;9.212;2022-08-03T07:26:15;3.00;;;2.27;;
7817;SDS011;3954;52.624;9.212;2022-08-03T07:28:42;2.77;;;2.40;;
7817;SDS011;3954;52.624;9.212;2022-08-03T07:31:08;3.30;;;2.20;;
7817;SDS011;3954;52.624;9.212;2022-08-03T07:33:34;2.83;;;2.00;;
7817;SDS011;3954;52.624;9.212;2022-08-03T07:36:00;4.57;;;1.90;;
7817;SDS011;3954;52.624;9.212;2022-08-03T07:38:26;3.53;;;2.00;;
7817;SDS011;3954;52.624;9.212;2022-08-03T07:40:53;2.93;;;2.20;;
7817;SDS011;3954;52.624;9.212;2022-08-03T07:43:19;3.57;;;2.07;;
7817;SDS011;3954;52.624;9.212;2022-08-03T07:45:47;4.50;;;2.40;;
7817;SDS011;3954;52.624;9.212;2022-08-03T07:48:13;4.70;;;2.27;;
7817;SDS011;3954;52.624;9.212;2022-08-03T07:50:39;4.00;;;2.13;;
7817;SDS011;3954;52.624;9.212;2022-08-03T07:53:05;3.13;;;2.10;;
7817;SDS011;3954;52.624;9.212;2022-08-03T07:55:31;3.73;;;2.20;;
7817;SDS011;3954;52.624;9.212;2022-08-03T07:58:01;8.03;;;2.33;;
7817;SDS011;3954;52.624;9.212;2022-08-03T08:00:27;2.37;;;1.80;;
7817;SDS011;3954;52.624;9.212;2022-08-03T08:02:54;5.50;;;1.93;;
7817;SDS011;3954;52.624;9.212;2022-08-03T08:05:20;3.00;;;2.03;;
7817;SDS011;3954;52.624;9.212;2022-08-03T08:07:46;3.20;;;2.00;;
7817;SDS011;3954;52.624;9.212;2022-08-03T08:10:12;6.10;;;2.40;;
7817;SDS011;3954;52.624;9.212;2022-08-03T08:12:38;5.50;;;2.30;;
7817;SDS011;3954;52.624;9.212;2022-08-03T08:15:05;4.47;;;2.20;;
7817;SDS011;3954;52.624;9.212;2022-08-03T08:17:39;7.33;;;1.80;;
7817;SDS011;3954;52.624;9.212;2022-08-03T08:20:07;3.83;;;1.97;;
7817;SDS011;3954;52.624;9.212;2022-08-03T08:22:34;2.50;;;1.70;;
7817;SDS011;3954;52.624;9.212;2022-08-03T08:24:59;4.23;;;1.80;;
7817;SDS011;3954;52.624;9.212;2022-08-03T08:27:25;4.10;;;2.03;;
7817;SDS011;3954;52.624;9.212;2022-08-03T08:29:51;2.07;;;1.70;;
7817;SDS011;3954;52.624;9.212;2022-08-03T08:32:17;2.63;;;1.70;;
7817;SDS011;3954;52.624;9.212;2022-08-03T08:34:43;1.80;;;1.70;;
7817;SDS011;3954;52.624;9.212;2022-08-03T08:37:11;5.23;;;2.20;;
7817;SDS011;3954;52.624;9.212;2022-08-03T08:39:37;5.70;;;2.00;;
7817;SDS011;3954;52.624;9.212;2022-08-03T08:42:03;3.90;;;2.00;;
7817;SDS011;3954;52.624;9.212;2022-08-03T08:44:29;3.33;;;2.10;;
7817;SDS011;3954;52.624;9.212;2022-08-03T08:46:55;4.97;;;2.13;;
7817;SDS011;3954;52.624;9.212;2022-08-03T08:49:22;3.13;;;1.60;;
7817;SDS011;3954;52.624;9.212;2022-08-03T08:51:51;2.33;;;1.70;;
7817;SDS011;3954;52.624;9.212;2022-08-03T08:54:20;5.47;;;2.10;;
7817;SDS011;3954;52.624;9.212;2022-08-03T08:56:47;5.80;;;2.10;;
7817;SDS011;3954;52.624;9.212;2022-08-03T08:59:13;5.57;;;2.07;;
7817;SDS011;3954;52.624;9.212;2022-08-03T09:01:42;6.17;;;1.70;;
7817;SDS011;3954;52.624;9.212;2022-08-03T09:04:08;8.17;;;1.97;;
7817;SDS011;3954;52.624;9.212;2022-08-03T09:06:34;3.77;;;1.83;;
7817;SDS011;3954;52.624;9.212;2022-08-03T09:09:00;3.30;;;1.50;;
7817;SDS011;3954;52.624;9.212;2022-08-03T09:11:27;3.83;;;1.90;;
7817;SDS011;3954;52.624;9.212;2022-08-03T09:13:53;5.63;;;1.70;;
7817;SDS011;3954;52.624;9.212;2022-08-03T09:16:20;3.90;;;1.63;;
7817;SDS011;3954;52.624;9.212;2022-08-03T09:18:47;4.13;;;1.80;;
7817;SDS011;3954;52.624;9.212;2022-08-03T09:21:15;2.60;;;1.60;;
7817;SDS011;3954;52.624;9.212;2022-08-03T09:23:45;2.97;;;1.53;;
7817;SDS011;3954;52.624;9.212;2022-08-03T09:26:12;2.57;;;1.87;;
7817;SDS011;3954;52.624;9.212;2022-08-03T09:28:39;3.33;;;1.80;;
7817;SDS011;3954;52.624;9.212;2022-08-03T09:31:05;4.87;;;2.00;;
7817;SDS011;3954;52.624;9.212;2022-08-03T09:33:32;1.93;;;1.50;;
7817;SDS011;3954;52.624;9.212;2022-08-03T09:36:10;7.00;;;1.80;;
7817;SDS011;3954;52.624;9.212;2022-08-03T09:39:00;4.80;;;1.67;;
7817;SDS011;3954;52.624;9.212;2022-08-03T09:41:27;3.00;;;1.70;;
7817;SDS011;3954;52.624;9.212;2022-08-03T09:43:54;3.33;;;1.70;;
7817;SDS011;3954;52.624;9.212;2022-08-03T09:46:21;4.83;;;2.13;;
7817;SDS011;3954;52.624;9.212;2022-08-03T09:48:47;4.03;;;1.70;;
7817;SDS011;3954;52.624;9.212;2022-08-03T09:51:14;2.23;;;1.80;;
7817;SDS011;3954;52.624;9.212;2022-08-03T09:53:43;5.07;;;2.00;;
7817;SDS011;3954;52.624;9.212;2022-08-03T09:56:09;7.03;;;1.67;;
7817;SDS011;3954;52.624;9.212;2022-08-03T09:58:43;6.10;;;2.00;;
7817;SDS011;3954;52.624;9.212;2022-08-03T10:01:11;3.67;;;1.53;;
7817;SDS011;3954;52.624;9.212;2022-08-03T10:03:37;2.53;;;1.77;;
7817;SDS011;3954;52.624;9.212;2022-08-03T10:06:13;3.57;;;1.93;;
7817;SDS011;3954;52.624;9.212;2022-08-03T10:08:39;3.50;;;2.00;;
7817;SDS011;3954;52.624;9.212;2022-08-03T10:11:05;6.37;;;2.00;;
7817;SDS011;3954;52.624;9.212;2022-08-03T10:13:31;4.87;;;1.70;;
7817;SDS011;3954;52.624;9.212;2022-08-03T10:15:57;6.63;;;2.00;;
7817;SDS011;3954;52.624;9.212;2022-08-03T10:18:24;5.10;;;1.90;;
7817;SDS011;3954;52.624;9.212;2022-08-03T10:20:51;8.53;;;1.83;;
7817;SDS011;3954;52.624;9.212;2022-08-03T10:23:18;4.73;;;2.00;;
7817;SDS011;3954;52.624;9.212;2022-08-03T10:25:45;4.07;;;1.80;;
7817;SDS011;3954;52.624;9.212;2022-08-03T10:28:13;3.67;;;1.63;;
7817;SDS011;3954;52.624;9.212;2022-08-03T10:30:40;3.60;;;1.87;;
7817;SDS011;3954;52.624;9.212;2022-08-03T10:33:12;3.80;;;1.70;;
7817;SDS011;3954;52.624;9.212;2022-08-03T10:35:40;4.10;;;2.10;;
7817;SDS011;3954;52.624;9.212;2022-08-03T10:38:08;4.40;;;1.93;;
7817;SDS011;3954;52.624;9.212;2022-08-03T10:40:34;4.00;;;2.20;;
7817;SDS011;3954;52.624;9.212;2022-08-03T10:43:04;3.53;;;2.00;;
7817;SDS011;3954;52.624;9.212;2022-08-03T10:45:32;4.90;;;2.37;;
7817;SDS011;3954;52.624;9.212;2022-08-03T10:48:00;3.17;;;2.00;;
7817;SDS011;3954;52.624;9.212;2022-08-03T10:50:27;4.70;;;2.07;;
7817;SDS011;3954;52.624;9.212;2022-08-03T10:52:55;5.23;;;2.10;;
7817;SDS011;3954;52.624;9.212;2022-08-03T10:55:31;4.80;;;2.30;;
7817;SDS011;3954;52.624;9.212;2022-08-03T11:00:57;3.20;;;1.70;;
7817;SDS011;3954;52.624;9.212;2022-08-03T11:03:23;4.97;;;2.10;;
7817;SDS011;3954;52.624;9.212;2022-08-03T11:05:49;4.03;;;1.90;;
7817;SDS011;3954;52.624;9.212;2022-08-03T11:08:31;4.37;;;1.90;;
7817;SDS011;3954;52.624;9.212;2022-08-03T11:10:59;3.40;;;1.77;;
7817;SDS011;3954;52.624;9.212;2022-08-03T11:13:26;3.93;;;1.93;;
7817;SDS011;3954;52.624;9.212;2022-08-03T11:15:55;2.80;;;1.90;;
7817;SDS011;3954;52.624;9.212;2022-08-03T11:18:22;4.33;;;1.83;;
7817;SDS011;3954;52.624;9.212;2022-08-03T11:20:49;4.60;;;2.07;;
7817;SDS011;3954;52.624;9.212;2022-08-03T11:23:16;7.27;;;1.77;;
7817;SDS011;3954;52.624;9.212;2022-08-03T11:28:28;5.00;;;1.80;;
7817;SDS011;3954;52.624;9.212;2022-08-03T11:30:54;3.43;;;1.90;;
7817;SDS011;3954;52.624;9.212;2022-08-03T11:33:29;4.23;;;2.10;;
7817;SDS011;3954;52.624;9.212;2022-08-03T11:35:59;3.70;;;2.87;;
7817;SDS011;3954;52.624;9.212;2022-08-03T11:38:25;9.23;;;2.20;;
7817;SDS011;3954;52.624;9.212;2022-08-03T11:40:52;4.77;;;3.47;;
7817;SDS011;3954;52.624;9.212;2022-08-03T11:46:09;4.93;;;2.00;;
7817;SDS011;3954;52.624;9.212;2022-08-03T11:48:42;3.87;;;2.00;;
7817;SDS011;3954;52.624;9.212;2022-08-03T11:51:17;2.77;;;1.80;;
7817;SDS011;3954;52.624;9.212;2022-08-03T11:53:43;6.00;;;2.07;;
7817;SDS011;3954;52.624;9.212;2022-08-03T11:56:11;4.00;;;1.90;;
7817;SDS011;3954;52.624;9.212;2022-08-03T11:58:44;4.93;;;1.97;;
7817;SDS011;3954;52.624;9.212;2022-08-03T12:01:13;3.93;;;2.10;;
7817;SDS011;3954;52.624;9.212;2022-08-03T12:03:41;4.03;;;1.90;;
7817;SDS011;3954;52.624;9.212;2022-08-03T12:06:08;5.83;;;1.93;;
7817;SDS011;3954;52.624;9.212;2022-08-03T12:08:34;4.43;;;1.90;;
7817;SDS011;3954;52.624;9.212;2022-08-03T12:11:00;4.70;;;2.10;;
7817;SDS011;3954;52.624;9.212;2022-08-03T12:13:35;4.23;;;1.80;;
7817;SDS011;3954;52.624;9.212;2022-08-03T12:16:01;3.23;;;1.93;;
7817;SDS011;3954;52.624;9.212;2022-08-03T12:18:29;8.30;;;2.33;;
7817;SDS011;3954;52.624;9.212;2022-08-03T12:21:02;5.63;;;2.20;;
7817;SDS011;3954;52.624;9.212;2022-08-03T12:23:28;4.53;;;1.80;;
7817;SDS011;3954;52.624;9.212;2022-08-03T12:25:59;4.80;;;2.00;;
7817;SDS011;3954;52.624;9.212;2022-08-03T12:28:25;6.87;;;2.20;;
7817;SDS011;3954;52.624;9.212;2022-08-03T12:30:52;6.93;;;2.30;;
7817;SDS011;3954;52.624;9.212;2022-08-03T12:33:22;5.63;;;1.93;;
7817;SDS011;3954;52.624;9.212;2022-08-03T12:35:50;3.33;;;1.90;;
7817;SDS011;3954;52.624;9.212;2022-08-03T12:38:27;11.00;;;2.40;;
7817;SDS011;3954;52.624;9.212;2022-08-03T12:40:54;5.80;;;2.23;;
7817;SDS011;3954;52.624;9.212;2022-08-03T12:43:20;5.50;;;1.90;;
7817;SDS011;3954;52.624;9.212;2022-08-03T12:45:46;4.17;;;2.30;;
7817;SDS011;3954;52.624;9.212;2022-08-03T12:48:12;4.57;;;1.90;;
7817;SDS011;3954;52.624;9.212;2022-08-03T12:50:38;5.63;;;2.10;;
7817;SDS011;3954;52.624;9.212;2022-08-03T12:53:07;4.25;;;2.08;;
7817;SDS011;3954;52.624;9.212;2022-08-03T12:55:33;4.60;;;2.07;;
7817;SDS011;3954;52.624;9.212;2022-08-03T12:58:00;9.40;;;2.70;;
7817;SDS011;3954;52.624;9.212;2022-08-03T13:00:26;4.53;;;2.10;;
7817;SDS011;3954;52.624;9.212;2022-08-03T13:02:57;4.13;;;1.73;;
7817;SDS011;3954;52.624;9.212;2022-08-03T13:05:23;5.07;;;2.23;;
7817;SDS011;3954;52.624;9.212;2022-08-03T13:07:49;3.60;;;2.10;;
7817;SDS011;3954;52.624;9.212;2022-08-03T13:10:27;6.68;;;2.17;;
7817;SDS011;3954;52.624;9.212;2022-08-03T13:12:53;6.03;;;2.03;;
7817;SDS011;3954;52.624;9.212;2022-08-03T13:15:22;4.60;;;1.70;;
7817;SDS011;3954;52.624;9.212;2022-08-03T13:17:50;5.67;;;1.80;;
7817;SDS011;3954;52.624;9.212;2022-08-03T13:20:16;5.17;;;2.20;;
7817;SDS011;3954;52.624;9.212;2022-08-03T13:22:45;6.43;;;2.27;;
7817;SDS011;3954;52.624;9.212;2022-08-03T13:25:11;8.17;;;2.30;;
7817;SDS011;3954;52.624;9.212;2022-08-03T13:27:39;11.90;;;2.43;;
7817;SDS011;3954;52.624;9.212;2022-08-03T13:30:05;6.00;;;2.40;;
7817;SDS011;3954;52.624;9.212;2022-08-03T13:32:32;7.67;;;2.43;;
7817;SDS011;3954;52.624;9.212;2022-08-03T13:34:58;4.43;;;2.20;;
7817;SDS011;3954;52.624;9.212;2022-08-03T13:37:26;5.53;;;2.20;;
7817;SDS011;3954;52.624;9.212;2022-08-03T13:39:52;4.37;;;2.10;;
7817;SDS011;3954;52.624;9.212;2022-08-03T13:42:18;5.03;;;2.47;;
7817;SDS011;3954;52.624;9.212;2022-08-03T13:44:45;3.37;;;2.00;;
7817;SDS011;3954;52.624;9.212;2022-08-03T13:47:11;8.95;;;2.42;;
7817;SDS011;3954;52.624;9.212;2022-08-03T13:49:37;3.50;;;2.10;;
7817;SDS011;3954;52.624;9.212;2022-08-03T13:52:04;4.07;;;2.10;;
7817;SDS011;3954;52.624;9.212;2022-08-03T13:54:30;3.53;;;2.23;;
7817;SDS011;3954;52.624;9.212;2022-08-03T13:56:57;8.07;;;2.23;;
7817;SDS011;3954;52.624;9.212;2022-08-03T13:59:24;5.70;;;1.93;;
7817;SDS011;3954;52.624;9.212;2022-08-03T14:01:52;4.53;;;2.20;;
7817;SDS011;3954;52.624;9.212;2022-08-03T14:04:18;3.97;;;1.80;;
7817;SDS011;3954;52.624;9.212;2022-08-03T14:06:44;5.43;;;2.10;;
7817;SDS011;3954;52.624;9.212;2022-08-03T14:09:10;4.30;;;1.97;;
7817;SDS011;3954;52.624;9.212;2022-08-03T14:11:37;5.20;;;2.27;;
7817;SDS011;3954;52.624;9.212;2022-08-03T14:14:03;4.97;;;2.27;;
7817;SDS011;3954;52.624;9.212;2022-08-03T14:16:29;4.03;;;2.00;;
7817;SDS011;3954;52.624;9.212;2022-08-03T14:18:56;6.37;;;2.10;;
7817;SDS011;3954;52.624;9.212;2022-08-03T14:21:22;4.23;;;2.10;;
7817;SDS011;3954;52.624;9.212;2022-08-03T14:23:48;5.60;;;2.27;;
7817;SDS011;3954;52.624;9.212;2022-08-03T14:26:14;4.10;;;1.90;;
7817;SDS011;3954;52.624;9.212;2022-08-03T14:28:42;5.70;;;2.10;;
7817;SDS011;3954;52.624;9.212;2022-08-03T14:31:08;3.00;;;1.80;;
7817;SDS011;3954;52.624;9.212;2022-08-03T14:33:34;4.37;;;1.80;;
7817;SDS011;3954;52.624;9.212;2022-08-03T14:36:02;4.53;;;1.97;;
7817;SDS011;3954;52.624;9.212;2022-08-03T14:38:28;10.20;;;2.00;;
7817;SDS011;3954;52.624;9.212;2022-08-03T14:40:54;2.40;;;1.60;;
7817;SDS011;3954;52.624;9.212;2022-08-03T14:43:20;3.27;;;1.67;;
7817;SDS011;3954;52.624;9.212;2022-08-03T14:45:46;6.23;;;1.90;;
7817;SDS011;3954;52.624;9.212;2022-08-03T14:48:12;4.30;;;2.10;;
7817;SDS011;3954;52.624;9.212;2022-08-03T14:50:38;3.43;;;2.00;;
7817;SDS011;3954;52.624;9.212;2022-08-03T14:53:05;4.20;;;2.03;;
7817;SDS011;3954;52.624;9.212;2022-08-03T14:55:32;6.82;;;2.20;;
7817;SDS011;3954;52.624;9.212;2022-08-03T14:57:57;7.07;;;2.33;;
7817;SDS011;3954;52.624;9.212;2022-08-03T15:00:26;6.28;;;2.30;;
7817;SDS011;3954;52.624;9.212;2022-08-03T15:02:52;4.72;;;2.25;;
7817;SDS011;3954;52.624;9.212;2022-08-03T15:05:18;5.07;;;1.80;;
7817;SDS011;3954;52.624;9.212;2022-08-03T15:07:44;5.53;;;1.83;;
7817;SDS011;3954;52.624;9.212;2022-08-03T15:10:12;3.13;;;2.00;;
7817;SDS011;3954;52.624;9.212;2022-08-03T15:12:38;4.85;;;1.85;;
7817;SDS011;3954;52.624;9.212;2022-08-03T15:15:04;4.13;;;2.10;;
7817;SDS011;3954;52.624;9.212;2022-08-03T15:17:30;3.30;;;1.92;;
7817;SDS011;3954;52.624;9.212;2022-08-03T15:19:56;3.58;;;1.90;;
7817;SDS011;3954;52.624;9.212;2022-08-03T15:22:22;3.97;;;1.90;;
7817;SDS011;3954;52.624;9.212;2022-08-03T15:24:48;7.20;;;1.98;;
7817;SDS011;3954;52.624;9.212;2022-08-03T15:27:16;5.65;;;2.00;;